Time;durP1;ratioP1;P1;durP2;ratioP2;P2;SDS_P1;SDS_P2;PMS_P1;PMS_P2;Temp;Humidity;BMP_temperature;BMP_pressure;BME280_temperature;BME280_humidity;BME280_pressure;Samples;Min_cycle;Max_cycle;Signal;HPM_P1;HPM_P2
2023/07/16 00:01:18;;;;;;;8.95;3.72;;;;;;;20.43;97.14;100763.19;5112190;28;20040;-63
2023/07/16 00:03:46;;;;;;;9.95;4.07;;;;;;;20.40;96.40;100769.41;5094378;28;20056;-64
2023/07/16 00:06:14;;;;;;;9.60;3.67;;;;;;;20.39;94.26;100762.25;5099829;28;20040;-62
2023/07/16 00:08:42;;;;;;;7.53;3.28;;;;;;;20.40;95.17;100769.41;5076504;28;20058;-63
2023/07/16 00:11:10;;;;;;;12.00;3.85;;;;;;;20.38;90.95;100776.44;5076753;28;20104;-62
2023/07/16 00:13:38;;;;;;;6.97;2.85;;;;;;;20.31;90.30;100763.13;5107768;28;20044;-62
2023/07/16 00:16:06;;;;;;;6.43;3.28;;;;;;;20.31;90.19;100770.63;5114707;28;20051;-62
2023/07/16 00:18:34;;;;;;;7.82;3.10;;;;;;;20.29;89.56;100773.72;5114863;28;20068;-61
2023/07/16 00:21:02;;;;;;;9.32;2.60;;;;;;;20.28;89.66;100772.09;5097512;28;20039;-61
2023/07/16 00:23:30;;;;;;;8.93;3.38;;;;;;;20.26;89.09;100770.81;5114203;28;20061;-63
2023/07/16 00:25:58;;;;;;;6.32;3.00;;;;;;;20.27;89.92;100772.41;5094848;28;20047;-62
2023/07/16 00:28:25;;;;;;;6.75;2.85;;;;;;;20.28;90.30;100774.88;5113037;28;20039;-62
2023/07/16 00:30:53;;;;;;;7.15;2.95;;;;;;;20.29;89.65;100776.47;5096521;28;20054;-64
2023/07/16 00:33:21;;;;;;;8.75;3.28;;;;;;;20.31;90.04;100776.94;5075595;28;20040;-62
2023/07/16 00:35:50;;;;;;;9.30;2.90;;;;;;;20.27;89.29;100778.75;5101313;28;20043;-62
2023/07/16 00:38:18;;;;;;;6.65;2.85;;;;;;;20.23;89.39;100777.81;5090245;28;20403;-63
2023/07/16 00:40:47;;;;;;;8.02;3.17;;;;;;;20.21;90.82;100782.88;5076469;28;20183;-62
2023/07/16 00:43:15;;;;;;;6.20;2.95;;;;;;;20.19;90.11;100779.63;5099554;28;20047;-62
2023/07/16 00:45:45;;;;;;;6.80;3.03;;;;;;;20.16;89.35;100781.13;5096567;28;20059;-63
2023/07/16 00:48:13;;;;;;;7.38;3.20;;;;;;;20.11;89.29;100786.84;5074764;28;20044;-62
2023/07/16 00:50:41;;;;;;;9.50;3.35;;;;;;;20.11;89.47;100783.28;5100846;28;20511;-63
2023/07/16 00:53:09;;;;;;;10.48;3.05;;;;;;;20.03;89.46;100787.69;5112075;28;20071;-63
2023/07/16 00:55:37;;;;;;;6.65;2.92;;;;;;;19.98;89.48;100780.38;5095195;28;20079;-62
2023/07/16 00:58:07;;;;;;;8.80;2.97;;;;;;;19.98;89.80;100782.34;5092985;28;20106;-64
2023/07/16 01:00:36;;;;;;;5.25;2.70;;;;;;;19.98;90.24;100791.44;5102781;28;20047;-63
2023/07/16 01:03:09;;;;;;;6.30;3.10;;;;;;;19.99;90.09;100790.31;5088170;28;20122;-63
2023/07/16 01:05:52;;;;;;;6.93;2.85;;;;;;;19.95;89.35;100783.81;5127217;28;20085;-64
2023/07/16 01:08:51;;;;;;;11.95;3.10;;;;;;;19.97;90.69;100781.53;5120501;28;20130;-63
2023/07/16 01:11:19;;;;;;;6.88;2.90;;;;;;;19.95;88.28;100786.59;5096320;28;20500;-64
2023/07/16 01:13:47;;;;;;;6.43;2.67;;;;;;;19.92;87.79;100786.44;5097499;28;20052;-62
2023/07/16 01:16:22;;;;;;;5.10;2.80;;;;;;;19.96;90.16;100779.94;5117960;28;20047;-61
2023/07/16 01:18:51;;;;;;;5.63;2.37;;;;;;;19.96;88.92;100782.69;5100076;28;20040;-61
2023/07/16 01:21:21;;;;;;;7.13;2.72;;;;;;;19.96;89.10;100781.84;5100021;28;20048;-62
2023/07/16 01:24:10;;;;;;;8.10;2.92;;;;;;;19.89;88.55;100776.88;5066607;28;20440;-63
2023/07/16 01:26:57;;;;;;;7.55;2.85;;;;;;;19.89;88.78;100781.56;5062857;28;20048;-63
2023/07/16 01:29:29;;;;;;;8.20;2.75;;;;;;;19.88;89.31;100775.22;5097538;28;20110;-63
2023/07/16 01:32:00;;;;;;;8.20;3.17;;;;;;;19.85;88.77;100781.44;5116085;28;20100;-63
2023/07/16 01:34:30;;;;;;;10.95;2.90;;;;;;;19.78;88.13;100776.41;5099261;28;20043;-62
2023/07/16 01:36:59;;;;;;;6.38;2.40;;;;;;;19.74;89.39;100777.41;5081491;28;20052;-62
2023/07/16 01:39:27;;;;;;;9.98;2.97;;;;;;;19.71;89.42;100776.09;5082328;28;20040;-64
2023/07/16 01:41:55;;;;;;;7.55;2.95;;;;;;;19.67;89.82;100771.53;5098862;28;20043;-63
2023/07/16 01:44:23;;;;;;;7.60;2.83;;;;;;;19.65;90.20;100776.59;5113946;28;20037;-61
2023/07/16 01:47:10;;;;;;;6.55;2.88;;;;;;;19.67;91.62;100774.31;5097670;28;20044;-63
2023/07/16 01:49:39;;;;;;;6.45;2.83;;;;;;;19.67;90.77;100768.78;5098853;28;20486;-63
2023/07/16 01:52:07;;;;;;;6.25;2.83;;;;;;;19.63;90.43;100773.38;5099084;28;20043;-63
2023/07/16 01:54:36;;;;;;;8.63;3.15;;;;;;;19.59;90.68;100770.44;5099482;28;20479;-63
2023/07/16 01:57:04;;;;;;;7.85;3.05;;;;;;;19.57;91.66;100773.50;5116018;28;20052;-63
2023/07/16 01:59:32;;;;;;;7.00;2.80;;;;;;;19.63;91.91;100773.38;5082256;28;20059;-62
2023/07/16 02:02:00;;;;;;;7.00;2.60;;;;;;;19.61;92.38;100775.63;5099217;28;20093;-62
2023/07/16 02:04:27;;;;;;;6.00;2.63;;;;;;;19.60;92.24;100774.81;5118046;28;20048;-61
2023/07/16 02:06:58;;;;;;;9.27;3.17;;;;;;;19.56;92.81;100768.34;5099993;28;20044;-63
2023/07/16 02:09:26;;;;;;;9.00;3.17;;;;;;;19.52;93.01;100767.38;5087615;28;20050;-63
2023/07/16 02:11:54;;;;;;;11.40;3.53;;;;;;;19.47;93.16;100771.13;5108331;28;20051;-63
2023/07/16 02:14:22;;;;;;;10.68;3.25;;;;;;;19.42;93.68;100774.06;5084834;28;20505;-62
2023/07/16 02:16:50;;;;;;;8.15;3.35;;;;;;;19.33;94.62;100784.31;5099253;28;20070;-63
2023/07/16 02:19:18;;;;;;;6.22;2.90;;;;;;;19.30;94.86;100780.25;5116788;28;20039;-63
2023/07/16 02:21:46;;;;;;;5.90;3.03;;;;;;;19.25;95.74;100782.38;5098276;28;20406;-62
2023/07/16 02:24:13;;;;;;;7.78;3.00;;;;;;;19.24;96.68;100778.81;5099941;28;20414;-64
2023/07/16 02:26:41;;;;;;;6.18;3.15;;;;;;;19.25;96.72;100779.63;5115532;28;20052;-62
2023/07/16 02:29:12;;;;;;;4.97;2.60;;;;;;;19.24;97.13;100770.53;5115780;28;20044;-63
2023/07/16 02:31:40;;;;;;;6.97;3.08;;;;;;;19.21;97.51;100784.19;5098969;28;20047;-62
2023/07/16 02:34:09;;;;;;;7.18;2.92;;;;;;;19.21;97.58;100784.97;5098480;28;20042;-62
2023/07/16 02:36:37;;;;;;;10.40;3.38;;;;;;;19.18;98.00;100790.38;5098477;28;20055;-63
2023/07/16 02:39:04;;;;;;;4.72;2.53;;;;;;;19.16;98.55;100785.97;5115847;28;20047;-62
2023/07/16 02:41:32;;;;;;;6.90;2.67;;;;;;;19.16;98.78;100796.19;5077814;28;20052;-62
2023/07/16 02:44:04;;;;;;;7.90;2.67;;;;;;;19.17;98.73;100789.56;5116437;28;20487;-63
2023/07/16 02:46:32;;;;;;;5.68;2.63;;;;;;;19.22;98.65;100791.31;5097613;28;20040;-63
2023/07/16 02:49:02;;;;;;;8.48;2.80;;;;;;;19.25;98.30;100796.19;5098504;28;20054;-62
2023/07/16 02:51:30;;;;;;;6.22;2.88;;;;;;;19.33;97.84;100798.94;5115832;28;20047;-63
2023/07/16 02:53:58;;;;;;;5.82;2.72;;;;;;;19.34;97.10;100810.81;5115921;28;20051;-62
2023/07/16 02:56:26;;;;;;;5.75;2.80;;;;;;;19.37;97.17;100816.50;5114385;28;20050;-64
2023/07/16 02:58:53;;;;;;;8.02;3.13;;;;;;;19.44;96.85;100816.00;5115557;28;20445;-63
2023/07/16 03:01:21;;;;;;;6.82;2.85;;;;;;;19.41;96.53;100811.13;5097411;28;20050;-64
2023/07/16 03:03:50;;;;;;;10.68;3.17;;;;;;;19.41;96.60;100810.28;5088201;28;20054;-64
2023/07/16 03:06:18;;;;;;;8.05;2.90;;;;;;;19.36;96.95;100806.59;5115915;27;20055;-63
2023/07/16 03:08:51;;;;;;;6.90;2.60;;;;;;;19.31;97.22;100808.69;5114475;28;20380;-63
2023/07/16 03:11:19;;;;;;;7.15;2.65;;;;;;;19.31;97.09;100805.94;5114742;28;20479;-63
2023/07/16 03:13:47;;;;;;;9.60;2.72;;;;;;;19.29;97.09;100810.97;5112130;28;20039;-63
2023/07/16 03:16:14;;;;;;;7.63;2.88;;;;;;;19.34;96.85;100813.59;5114841;28;20047;-63
2023/07/16 03:18:44;;;;;;;7.93;2.90;;;;;;;19.24;97.26;100813.91;5114474;28;20395;-63
2023/07/16 03:21:12;;;;;;;7.03;2.80;;;;;;;19.21;97.33;100818.13;5097798;28;20059;-63
2023/07/16 03:23:40;;;;;;;8.63;2.92;;;;;;;19.18;97.40;100817.97;5109787;28;20059;-63
2023/07/16 03:26:07;;;;;;;7.43;2.75;;;;;;;19.14;97.72;100818.63;5092550;28;20052;-62
2023/07/16 03:28:35;;;;;;;7.70;2.47;;;;;;;19.20;97.84;100818.47;5113497;28;20373;-61
2023/07/16 03:31:06;;;;;;;7.85;3.20;;;;;;;19.23;96.94;100815.84;5130978;27;20073;-62
2023/07/16 03:33:36;;;;;;;7.88;2.65;;;;;;;19.23;96.63;100821.38;5108763;28;20444;-64
2023/07/16 03:36:04;;;;;;;5.25;2.67;;;;;;;19.32;96.63;100821.38;5103631;28;20054;-63
2023/07/16 03:38:32;;;;;;;7.88;3.00;;;;;;;19.33;96.63;100823.81;5110171;28;20475;-63
2023/07/16 03:41:00;;;;;;;9.95;3.38;;;;;;;19.31;94.44;100828.03;5111926;28;20043;-64
2023/07/16 03:43:28;;;;;;;5.68;2.50;;;;;;;19.36;95.25;100827.84;5114959;28;20410;-63
2023/07/16 03:46:07;;;;;;;9.30;3.17;;;;;;;19.48;91.77;100836.31;5111692;28;20051;-63
2023/07/16 03:48:36;;;;;;;14.48;3.70;;;;;;;19.38;91.65;100839.41;5097875;28;20423;-64
2023/07/16 03:51:03;;;;;;;9.70;3.70;;;;;;;19.23;89.64;100846.25;5112076;28;20055;-64
2023/07/16 03:53:31;;;;;;;6.47;3.10;;;;;;;19.22;92.00;100843.78;5113901;28;20040;-64
2023/07/16 03:55:59;;;;;;;7.65;3.00;;;;;;;19.12;91.50;100842.19;5110689;28;20031;-63
2023/07/16 03:58:29;;;;;;;6.55;3.03;;;;;;;19.20;89.73;100855.19;5111962;28;20494;-62
2023/07/16 04:00:57;;;;;;;10.93;4.22;;;;;;;19.16;89.35;100852.25;5094453;28;20044;-64
2023/07/16 04:03:26;;;;;;;10.60;3.40;;;;;;;18.98;86.26;100853.41;5087892;28;20058;-65
2023/07/16 04:06:02;;;;;;;6.93;3.50;;;;;;;19.01;88.19;100863.78;5112178;28;20124;-65
2023/07/16 04:08:30;;;;;;;5.78;2.95;;;;;;;19.06;89.05;100866.41;5098708;28;20050;-64
2023/07/16 04:10:58;;;;;;;7.03;3.55;;;;;;;19.05;87.28;100862.03;5111494;28;20115;-65
2023/07/16 04:13:26;;;;;;;10.85;3.53;;;;;;;18.92;85.21;100869.31;5102101;28;20043;-65
2023/07/16 04:15:55;;;;;;;9.68;3.80;;;;;;;18.86;86.80;100872.56;5114119;28;20043;-63
2023/07/16 04:18:24;;;;;;;17.50;4.10;;;;;;;18.91;88.37;100875.97;5096402;28;20048;-64
2023/07/16 04:20:52;;;;;;;8.05;3.50;;;;;;;18.99;89.10;100877.09;5113028;28;20067;-64
2023/07/16 04:23:20;;;;;;;9.70;3.70;;;;;;;19.04;86.67;100882.47;5078427;28;20051;-65
2023/07/16 04:25:53;;;;;;;9.35;3.60;;;;;;;19.15;86.34;100889.31;5108237;28;20108;-64
2023/07/16 04:28:20;;;;;;;7.18;3.38;;;;;;;19.22;87.21;100893.50;5066181;28;20054;-64
2023/07/16 04:30:48;;;;;;;8.65;3.40;;;;;;;19.14;86.32;100895.16;5075785;28;20048;-64
2023/07/16 04:33:16;;;;;;;6.72;3.50;;;;;;;19.15;85.58;100891.25;5086978;28;20035;-63
2023/07/16 04:35:44;;;;;;;6.90;3.35;;;;;;;19.13;85.84;100882.50;5114619;28;20084;-63
2023/07/16 04:38:12;;;;;;;8.23;3.75;;;;;;;19.19;84.50;100889.47;5114169;28;20047;-64
2023/07/16 04:40:41;;;;;;;11.52;3.65;;;;;;;19.38;85.13;100900.19;5096183;28;20040;-63
2023/07/16 04:43:09;;;;;;;9.77;4.03;;;;;;;19.34;82.82;100899.22;5113526;28;20048;-64
2023/07/16 04:45:36;;;;;;;8.27;3.63;;;;;;;19.32;80.59;100901.50;5078208;28;20499;-63
2023/07/16 04:48:04;;;;;;;8.55;3.47;;;;;;;19.23;82.43;100911.72;5113479;28;20050;-65
2023/07/16 04:50:32;;;;;;;10.82;3.78;;;;;;;19.07;81.27;100917.75;5115923;28;20057;-64
2023/07/16 04:53:00;;;;;;;9.77;3.80;;;;;;;19.06;82.97;100921.63;5117704;28;20055;-64
2023/07/16 04:55:28;;;;;;;11.73;3.80;;;;;;;18.98;81.88;100914.16;5117585;28;20513;-64
2023/07/16 04:57:56;;;;;;;10.98;4.70;;;;;;;19.07;82.40;100923.28;5114703;28;20051;-64
2023/07/16 05:00:24;;;;;;;7.40;3.53;;;;;;;19.20;85.07;100923.44;5111412;28;20044;-65
2023/07/16 05:02:52;;;;;;;9.50;4.20;;;;;;;19.11;80.42;100918.69;5118814;28;20039;-64
2023/07/16 05:05:20;;;;;;;7.15;3.22;;;;;;;19.10;83.14;100925.38;5118762;28;20058;-64
2023/07/16 05:07:48;;;;;;;10.18;4.32;;;;;;;19.26;79.70;100928.47;5117613;28;20426;-64
2023/07/16 05:10:15;;;;;;;12.32;4.53;;;;;;;19.03;78.85;100936.09;5098484;28;20077;-64
2023/07/16 05:12:43;;;;;;;9.18;3.65;;;;;;;19.07;81.32;100928.78;5097819;28;20047;-62
2023/07/16 05:15:11;;;;;;;8.60;4.07;;;;;;;19.03;82.23;100925.03;5105715;28;20111;-65
2023/07/16 05:17:39;;;;;;;12.25;4.30;;;;;;;18.95;82.23;100917.53;4770002;28;10001425;-65
2023/07/16 05:20:09;;;;;;;7.88;3.75;;;;;;;19.08;83.58;100922.13;5104387;28;20386;-65
2023/07/16 05:22:37;;;;;;;12.07;3.90;;;;;;;19.23;79.31;100926.34;5091301;28;20060;-64
2023/07/16 05:25:05;;;;;;;9.32;3.65;;;;;;;19.16;83.09;100921.31;5104969;28;20040;-65
2023/07/16 05:27:33;;;;;;;10.63;4.07;;;;;;;19.23;80.50;100914.50;5108221;28;20063;-65
2023/07/16 05:30:01;;;;;;;7.38;3.42;;;;;;;19.14;81.31;100923.56;5125744;28;20059;-61
2023/07/16 05:32:29;;;;;;;8.25;4.18;;;;;;;19.08;78.58;100930.41;5103041;28;20048;-64
2023/07/16 05:34:56;;;;;;;10.23;4.07;;;;;;;19.20;80.66;100928.97;5114832;28;20044;-64
2023/07/16 05:37:27;;;;;;;17.92;5.20;;;;;;;19.08;77.16;100932.34;5114709;28;20051;-64
2023/07/16 05:39:55;;;;;;;10.27;4.05;;;;;;;19.11;81.75;100935.28;5111364;28;20047;-63
2023/07/16 05:42:23;;;;;;;7.90;3.55;;;;;;;19.20;81.05;100940.00;5113901;28;20085;-64
2023/07/16 05:44:50;;;;;;;7.88;4.30;;;;;;;19.27;77.19;100954.16;5113059;28;20055;-64
2023/07/16 05:47:18;;;;;;;12.55;5.05;;;;;;;19.21;76.31;100949.91;5113940;28;20052;-67
2023/07/16 05:49:46;;;;;;;11.05;4.97;;;;;;;19.11;76.81;100943.56;5114146;28;20059;-65
2023/07/16 05:52:14;;;;;;;7.45;3.85;;;;;;;19.07;79.78;100948.13;5080127;28;20056;-63
2023/07/16 05:54:44;;;;;;;14.85;5.47;;;;;;;19.27;74.74;100960.50;5113469;28;20043;-64
2023/07/16 05:57:12;;;;;;;11.38;4.18;;;;;;;19.10;77.36;100952.19;5111127;28;20488;-64
2023/07/16 05:59:40;;;;;;;13.68;4.55;;;;;;;18.97;75.97;100956.69;5095105;28;20039;-63
2023/07/16 06:02:08;;;;;;;10.98;4.28;;;;;;;19.14;78.97;100956.72;5113324;28;20507;-63
2023/07/16 06:04:36;;;;;;;7.18;3.38;;;;;;;18.90;77.51;100967.41;5113271;28;20048;-64
2023/07/16 06:07:04;;;;;;;10.57;4.47;;;;;;;18.91;80.16;100963.50;5112674;28;20106;-64
2023/07/16 06:09:32;;;;;;;10.13;4.88;;;;;;;18.91;75.57;100974.56;5114835;28;20495;-63
2023/07/16 06:12:00;;;;;;;10.75;4.28;;;;;;;19.03;79.31;100963.72;5116605;28;20104;-63
2023/07/16 06:14:28;;;;;;;13.13;5.18;;;;;;;19.02;78.70;100970.34;5116782;28;20544;-63
2023/07/16 06:16:56;;;;;;;14.82;5.60;;;;;;;19.15;76.41;100979.66;5116999;28;20039;-62
2023/07/16 06:19:24;;;;;;;13.55;5.38;;;;;;;19.14;75.75;100983.53;5116841;28;20051;-62
2023/07/16 06:21:51;;;;;;;12.85;5.15;;;;;;;19.32;76.44;100992.69;5117253;28;20039;-62
2023/07/16 06:24:19;;;;;;;12.40;5.18;;;;;;;19.21;75.26;100981.09;5096148;28;20079;-64
2023/07/16 06:26:47;;;;;;;13.13;5.22;;;;;;;19.07;75.92;100981.28;5098670;28;20395;-61
2023/07/16 06:29:15;;;;;;;14.98;5.20;;;;;;;19.18;75.34;100992.81;5116538;28;20407;-63
2023/07/16 06:31:53;;;;;;;14.23;5.65;;;;;;;19.05;75.78;100993.75;5116577;28;20056;-63
2023/07/16 06:34:21;;;;;;;20.30;6.20;;;;;;;19.21;74.31;100994.13;5098993;28;20421;-63
2023/07/16 06:36:49;;;;;;;16.90;6.25;;;;;;;19.03;74.92;100999.59;5117096;28;20043;-63
2023/07/16 06:39:17;;;;;;;20.58;7.35;;;;;;;18.96;76.23;101004.78;5113184;28;20132;-62
2023/07/16 06:41:45;;;;;;;40.55;7.80;;;;;;;19.31;76.52;100999.31;5113781;28;20078;-62
2023/07/16 06:44:14;;;;;;;25.13;7.72;;;;;;;19.54;75.44;101000.00;5081894;28;20043;-62
2023/07/16 06:46:42;;;;;;;16.80;5.80;;;;;;;19.58;76.01;101004.56;5078658;28;20479;-62
2023/07/16 06:49:10;;;;;;;15.23;6.00;;;;;;;19.43;74.21;101002.25;5109828;28;20066;-63
2023/07/16 06:51:37;;;;;;;15.75;5.93;;;;;;;19.47;74.08;101010.72;5061720;28;20501;-64
2023/07/16 06:54:06;;;;;;;14.93;5.97;;;;;;;19.60;72.82;100998.69;5096161;28;20541;-62
2023/07/16 06:56:34;;;;;;;11.50;5.30;;;;;;;19.58;74.86;101009.28;5100146;28;20040;-62
2023/07/16 06:59:01;;;;;;;10.80;5.50;;;;;;;19.72;73.27;101007.22;5116006;28;20047;-61
2023/07/16 07:01:29;;;;;;;12.82;5.05;;;;;;;19.76;71.24;101008.16;5099182;28;20107;-63
2023/07/16 07:03:57;;;;;;;13.32;5.15;;;;;;;19.69;72.19;101023.63;5116166;28;20046;-62
2023/07/16 07:06:25;;;;;;;13.50;5.90;;;;;;;19.55;72.36;101016.28;5114460;28;20125;-65
2023/07/16 07:08:53;;;;;;;11.63;5.30;;;;;;;19.35;73.56;101022.41;5097984;28;20044;-63
2023/07/16 07:11:21;;;;;;;10.15;3.90;;;;;;;19.79;73.61;101010.31;5113390;28;20444;-63
2023/07/16 07:13:50;;;;;;;10.50;4.85;;;;;;;19.81;72.71;101018.25;5107463;28;20074;-61
2023/07/16 07:16:19;;;;;;;14.52;5.45;;;;;;;19.66;71.21;101021.47;5115261;28;20444;-63
2023/07/16 07:18:47;;;;;;;12.07;5.60;;;;;;;19.54;73.40;101024.88;5114289;28;20092;-63
2023/07/16 07:21:15;;;;;;;11.20;5.10;;;;;;;19.66;72.54;101027.00;5114293;28;20054;-65
2023/07/16 07:23:43;;;;;;;15.35;6.55;;;;;;;19.43;72.31;101029.91;5115951;28;20052;-61
2023/07/16 07:26:11;;;;;;;15.10;6.05;;;;;;;19.20;73.15;101028.41;5114562;28;20503;-65
2023/07/16 07:28:38;;;;;;;16.90;5.80;;;;;;;19.06;74.48;101031.28;5094543;28;20052;-64
2023/07/16 07:31:06;;;;;;;12.38;5.78;;;;;;;18.96;74.65;101037.13;5094803;28;20445;-62
2023/07/16 07:33:34;;;;;;;10.23;5.00;;;;;;;18.88;74.87;101025.72;5095323;28;20052;-63
2023/07/16 07:36:02;;;;;;;13.07;5.20;;;;;;;18.85;75.06;101047.59;5063426;28;20148;-62
2023/07/16 07:38:30;;;;;;;11.40;5.05;;;;;;;18.85;74.95;101044.84;5116145;28;20047;-63
2023/07/16 07:40:58;;;;;;;11.20;5.32;;;;;;;18.84;75.53;101046.00;5115061;28;20096;-63
2023/07/16 07:43:26;;;;;;;11.35;5.10;;;;;;;18.84;75.23;101037.72;5115215;28;20052;-65
2023/07/16 07:45:54;;;;;;;12.98;5.30;;;;;;;18.86;75.46;101039.03;5115134;28;20036;-63
2023/07/16 07:48:22;;;;;;;12.05;5.53;;;;;;;18.88;75.57;101044.19;5115178;28;20048;-63
2023/07/16 07:50:50;;;;;;;10.98;5.13;;;;;;;18.90;75.76;101045.50;5115098;28;20048;-64
2023/07/16 07:53:20;;;;;;;13.95;5.88;;;;;;;18.91;75.94;101040.81;5115153;28;20058;-63
2023/07/16 07:55:48;;;;;;;11.30;5.20;;;;;;;18.89;74.58;101043.09;5114501;28;20058;-63
2023/07/16 07:58:15;;;;;;;12.05;4.93;;;;;;;18.90;75.43;101050.22;5114354;28;20055;-64
2023/07/16 08:00:43;;;;;;;11.95;5.38;;;;;;;18.91;75.31;101055.44;5114740;28;20044;-64
2023/07/16 08:03:11;;;;;;;9.40;5.13;;;;;;;18.94;75.67;101045.69;5114826;28;20047;-62
2023/07/16 08:05:39;;;;;;;12.48;5.50;;;;;;;18.97;75.58;101056.09;5114488;28;20056;-65
2023/07/16 08:08:19;;;;;;;9.85;5.03;;;;;;;19.00;75.51;101049.13;5114528;28;20051;-64
2023/07/16 08:10:47;;;;;;;10.90;5.28;;;;;;;19.05;75.92;101051.75;5096349;28;20100;-62
2023/07/16 08:13:15;;;;;;;11.40;5.40;;;;;;;19.08;75.68;101049.16;5096392;28;20069;-63
2023/07/16 08:15:43;;;;;;;11.35;5.50;;;;;;;19.14;75.19;101058.91;5096690;28;20043;-62
2023/07/16 08:18:11;;;;;;;11.55;5.70;;;;;;;19.20;75.28;101054.09;5096239;28;20058;-64
2023/07/16 08:20:40;;;;;;;11.77;5.50;;;;;;;19.25;75.37;101053.13;5114500;28;20037;-64
2023/07/16 08:23:08;;;;;;;14.32;5.70;;;;;;;19.26;74.82;101052.78;5079414;28;20056;-63
2023/07/16 08:25:36;;;;;;;12.20;5.18;;;;;;;19.28;74.21;101061.56;5114829;28;20047;-63
2023/07/16 08:28:04;;;;;;;11.13;5.57;;;;;;;19.28;73.91;101058.81;5113553;28;20047;-64
2023/07/16 08:30:33;;;;;;;14.30;5.78;;;;;;;19.27;73.59;101075.72;5114267;28;20043;-63
2023/07/16 08:33:01;;;;;;;13.65;5.55;;;;;;;19.29;73.79;101062.38;5114475;28;20040;-64
2023/07/16 08:35:29;;;;;;;10.38;5.25;;;;;;;19.30;73.68;101058.50;5096644;28;20080;-61
2023/07/16 08:37:57;;;;;;;14.10;5.68;;;;;;;19.30;73.65;101064.03;5096092;28;20496;-63
2023/07/16 08:40:24;;;;;;;10.13;5.07;;;;;;;19.30;73.88;101067.59;5114385;28;20096;-63
2023/07/16 08:42:53;;;;;;;9.82;5.13;;;;;;;19.33;73.74;101066.13;5096808;28;20047;-63
2023/07/16 08:45:23;;;;;;;11.18;5.25;;;;;;;19.38;73.64;101071.50;5079646;28;20047;-63
2023/07/16 08:47:51;;;;;;;15.18;6.10;;;;;;;19.48;74.48;101067.63;5096535;28;20543;-65
2023/07/16 08:50:19;;;;;;;12.13;5.65;;;;;;;19.54;73.66;101058.84;5095613;28;20055;-63
2023/07/16 08:52:47;;;;;;;10.32;5.00;;;;;;;19.61;73.38;101071.41;5096376;28;20048;-64
2023/07/16 08:55:15;;;;;;;11.27;5.03;;;;;;;19.65;72.64;101069.59;5114391;28;20048;-62
2023/07/16 08:57:43;;;;;;;9.35;4.70;;;;;;;19.66;72.73;101071.25;5078838;28;20043;-62
2023/07/16 09:00:12;;;;;;;11.73;5.10;;;;;;;19.69;72.61;101076.16;5063253;28;20129;-63
2023/07/16 09:02:40;;;;;;;10.68;4.90;;;;;;;19.74;72.87;101067.69;5086968;28;20058;-63
2023/07/16 09:05:09;;;;;;;11.25;4.75;;;;;;;19.79;73.16;101068.38;5096271;28;20039;-63
2023/07/16 09:07:50;;;;;;;13.85;5.68;;;;;;;19.86;72.21;101070.63;5097655;28;20059;-65
2023/07/16 09:10:18;;;;;;;16.08;5.28;;;;;;;19.89;71.76;101075.53;5114052;28;20099;-63
2023/07/16 09:12:47;;;;;;;11.77;5.18;;;;;;;19.93;71.79;101087.53;5079173;28;20058;-63
2023/07/16 09:15:20;;;;;;;12.65;5.32;;;;;;;19.98;71.55;101084.63;5114086;28;20054;-63
2023/07/16 09:17:49;;;;;;;11.52;5.45;;;;;;;20.00;72.27;101090.63;5097002;28;20080;-63
2023/07/16 09:20:17;;;;;;;10.20;4.85;;;;;;;20.00;72.12;101079.56;5113926;28;20444;-62
2023/07/16 09:22:47;;;;;;;10.63;5.20;;;;;;;20.03;72.54;101085.59;5112547;28;20047;-64
2023/07/16 09:25:15;;;;;;;8.55;4.47;;;;;;;20.10;72.26;101086.72;5114202;28;20480;-63
2023/07/16 09:27:42;;;;;;;13.25;5.13;;;;;;;20.14;71.11;101086.91;5113442;28;20472;-63
2023/07/16 09:30:15;;;;;;;11.77;5.10;;;;;;;20.11;69.87;101096.69;5114287;28;20069;-63
2023/07/16 09:32:43;;;;;;;8.77;4.47;;;;;;;20.09;69.19;101087.06;5079060;28;20086;-62
2023/07/16 09:35:12;;;;;;;10.55;4.65;;;;;;;20.09;68.59;101095.38;5114928;28;20051;-63
2023/07/16 09:37:40;;;;;;;12.35;4.95;;;;;;;20.05;68.10;101100.72;5118323;28;20059;-63
2023/07/16 09:40:10;;;;;;;9.32;4.55;;;;;;;20.04;69.06;101110.19;5100814;28;20051;-64
2023/07/16 09:42:40;;;;;;;12.07;4.85;;;;;;;20.04;70.02;101099.13;5100844;28;20046;-64
2023/07/16 09:45:12;;;;;;;13.95;4.90;;;;;;;20.07;70.50;101104.00;5107047;28;20048;-62
2023/07/16 09:47:40;;;;;;;9.88;4.72;;;;;;;20.09;70.38;101111.97;5123687;28;20123;-62
2023/07/16 09:50:11;;;;;;;9.93;4.60;;;;;;;20.09;69.70;101109.22;5127316;28;20139;-62
2023/07/16 09:52:42;;;;;;;12.30;4.65;;;;;;;20.08;69.23;101115.84;5107044;28;20048;-63
2023/07/16 09:55:10;;;;;;;9.82;4.80;;;;;;;20.07;69.00;101108.72;5092141;28;20115;-64
2023/07/16 09:57:42;;;;;;;9.50;4.47;;;;;;;20.09;69.00;101106.44;5113975;28;20070;-65
2023/07/16 10:00:12;;;;;;;12.90;5.15;;;;;;;20.10;68.67;101119.13;5100947;28;20040;-62
2023/07/16 10:02:40;;;;;;;8.85;4.53;;;;;;;20.11;68.27;101121.56;5099356;28;20088;-62
2023/07/16 10:05:27;;;;;;;10.85;4.78;;;;;;;20.15;69.54;101118.94;5099082;28;20388;-62
2023/07/16 10:08:00;;;;;;;9.60;5.25;;;;;;;20.15;69.17;101117.00;5117011;28;20110;-62
2023/07/16 10:10:48;;;;;;;7.47;3.97;;;;;;;20.17;68.20;101127.75;5099678;28;20094;-64
2023/07/16 10:13:17;;;;;;;13.85;4.88;;;;;;;20.17;68.30;101127.75;5116782;28;20050;-63
2023/07/16 10:15:53;;;;;;;8.85;4.50;;;;;;;20.19;68.68;101134.56;5116710;28;20066;-63
2023/07/16 10:18:30;;;;;;;11.98;5.00;;;;;;;20.22;68.74;101133.09;5099373;28;20055;-62
2023/07/16 10:21:07;;;;;;;10.95;4.55;;;;;;;20.28;69.11;101136.56;5099226;28;20476;-62
2023/07/16 10:23:43;;;;;;;8.98;4.40;;;;;;;20.34;69.44;101141.56;5116391;28;20055;-62
2023/07/16 10:26:13;;;;;;;10.93;4.57;;;;;;;20.39;69.29;101146.94;5117026;28;20408;-63
2023/07/16 10:28:47;;;;;;;9.00;4.93;;;;;;;20.40;67.71;101154.13;5098763;28;20488;-62
2023/07/16 10:31:22;;;;;;;11.13;4.80;;;;;;;20.42;68.25;101156.56;5116875;28;20048;-64
2023/07/16 10:34:07;;;;;;;9.93;5.05;;;;;;;20.44;68.54;101154.25;5116722;28;20487;-64
2023/07/16 10:36:39;;;;;;;10.73;4.80;;;;;;;20.46;68.24;101142.88;5099750;28;20130;-63
2023/07/16 10:39:07;;;;;;;10.50;4.47;;;;;;;20.48;67.28;101151.66;5082025;28;20078;-63
2023/07/16 10:41:35;;;;;;;10.35;4.25;;;;;;;20.49;66.76;101158.81;5097510;28;20052;-63
2023/07/16 10:44:04;;;;;;;11.77;4.55;;;;;;;20.53;67.06;101154.25;5078034;28;20449;-63
2023/07/16 10:46:33;;;;;;;10.68;4.85;;;;;;;20.55;67.27;101161.13;5076767;28;20043;-63
2023/07/16 10:49:01;;;;;;;9.82;4.65;;;;;;;20.61;68.20;101150.69;5062160;28;20438;-64
2023/07/16 10:51:29;;;;;;;9.35;4.57;;;;;;;20.70;67.44;101150.69;5096151;28;20040;-63
2023/07/16 10:53:58;;;;;;;9.60;4.82;;;;;;;20.82;68.18;101145.28;5095150;28;20070;-63
2023/07/16 10:56:26;;;;;;;16.15;4.90;;;;;;;20.94;67.05;101150.94;5081081;28;20050;-64
2023/07/16 10:58:54;;;;;;;9.75;4.80;;;;;;;21.02;66.44;101161.22;5097917;28;20510;-62
2023/07/16 11:01:21;;;;;;;8.60;4.50;;;;;;;21.05;67.05;101159.72;5098042;28;20035;-63
2023/07/16 11:03:49;;;;;;;9.85;4.50;;;;;;;21.04;66.60;101169.97;5097756;28;20043;-64
2023/07/16 11:06:19;;;;;;;11.45;4.45;;;;;;;21.00;66.61;101154.38;5115851;28;20040;-63
2023/07/16 11:08:47;;;;;;;11.23;4.65;;;;;;;20.96;66.57;101161.72;5116490;28;20048;-62
2023/07/16 11:11:15;;;;;;;8.82;4.25;;;;;;;20.91;67.00;101170.19;5097721;28;20047;-63
2023/07/16 11:13:44;;;;;;;9.82;4.40;;;;;;;20.86;67.05;101165.66;5115291;28;20048;-65
2023/07/16 11:16:16;;;;;;;9.73;4.35;;;;;;;20.79;67.48;101168.91;5097693;28;20392;-60
2023/07/16 11:18:45;;;;;;;9.13;4.22;;;;;;;20.73;67.58;101164.66;5116406;28;20410;-63
2023/07/16 11:21:13;;;;;;;10.68;4.55;;;;;;;20.69;67.59;101174.81;5097102;28;20420;-62
2023/07/16 11:23:40;;;;;;;9.95;4.38;;;;;;;20.67;67.47;101182.63;5114855;28;20104;-61
2023/07/16 11:26:09;;;;;;;9.32;4.15;;;;;;;20.64;66.64;101191.59;5115136;28;20057;-62
2023/07/16 11:28:41;;;;;;;10.13;4.38;;;;;;;20.64;67.26;101184.09;5115266;28;20040;-61
2023/07/16 11:31:16;;;;;;;10.65;4.57;;;;;;;20.67;66.29;101190.94;5097183;28;20046;-63